Time;durP1;ratioP1;P1;durP2;ratioP2;P2;SDS_P1;SDS_P2;PMS_P1;PMS_P2;Temp;Humidity;BMP_temperature;BMP_pressure;BME280_temperature;BME280_humidity;BME280_pressure;Samples;Min_cycle;Max_cycle;Signal;HPM_P1;HPM_P2
2021/10/20 00:00:23;;;;;;;7.25;6.55;;;;;;;13.06;80.87;98928.63;5038731;27;103062;-60
2021/10/20 00:02:55;;;;;;;7.03;6.32;;;;;;;13.30;79.90;98928.53;5041156;27;103133;-59
2021/10/20 00:05:25;;;;;;;8.30;6.88;;;;;;;12.84;81.01;98925.09;5053830;27;103327;-59
2021/10/20 00:07:53;;;;;;;7.20;6.50;;;;;;;13.06;80.40;98919.81;5036813;27;103301;-59
2021/10/20 00:10:22;;;;;;;6.80;6.20;;;;;;;13.26;80.00;98919.97;5047893;27;103070;-59
2021/10/20 00:12:52;;;;;;;6.60;5.97;;;;;;;13.16;79.38;98924.31;5033523;27;102770;-59
2021/10/20 00:15:23;;;;;;;5.78;5.22;;;;;;;13.09;79.34;98920.44;5051368;27;103791;-59
2021/10/20 00:17:51;;;;;;;7.73;6.50;;;;;;;12.96;79.73;98914.41;5047673;27;103459;-60
2021/10/20 00:20:22;;;;;;;7.78;6.50;;;;;;;12.83;80.40;98915.50;5042555;27;103231;-59
2021/10/20 00:22:53;;;;;;;6.10;5.50;;;;;;;13.05;79.97;98912.84;5016258;27;102835;-58
2021/10/20 00:25:21;;;;;;;6.33;5.30;;;;;;;13.21;78.58;98908.03;5011630;27;103549;-59
2021/10/20 00:27:49;;;;;;;6.10;5.50;;;;;;;12.89;80.33;98907.88;5036163;27;102999;-59
2021/10/20 00:30:23;;;;;;;6.82;5.90;;;;;;;12.57;80.97;98907.75;5050206;27;103016;-59
2021/10/20 00:32:51;;;;;;;9.05;6.43;;;;;;;12.24;82.63;98906.84;5043644;27;103923;-59
2021/10/20 00:35:19;;;;;;;7.35;5.57;;;;;;;12.24;82.64;98909.47;5043327;27;104433;-59
2021/10/20 00:37:47;;;;;;;6.78;6.07;;;;;;;12.18;82.56;98905.50;5049342;27;103652;-59
2021/10/20 00:40:17;;;;;;;7.05;6.35;;;;;;;12.35;82.41;98906.84;5027199;27;103153;-60
2021/10/20 00:42:45;;;;;;;6.72;5.53;;;;;;;12.34;81.50;98910.47;5050422;27;102756;-60
2021/10/20 00:45:14;;;;;;;6.38;5.78;;;;;;;12.27;82.04;98909.25;5051211;27;102729;-59
2021/10/20 00:47:42;;;;;;;7.18;6.05;;;;;;;12.19;82.54;98892.13;5028040;27;103209;-59
2021/10/20 00:50:12;;;;;;;6.57;5.95;;;;;;;11.80;84.02;98892.47;5012794;27;102656;-59
2021/10/20 00:52:41;;;;;;;7.43;6.50;;;;;;;11.72;84.42;98891.34;5029480;27;103132;-59
2021/10/20 00:55:11;;;;;;;6.77;6.07;;;;;;;11.67;84.98;98881.06;5029745;27;103351;-59
2021/10/20 00:57:41;;;;;;;6.35;5.82;;;;;;;11.68;84.46;98888.03;5034373;27;103181;-59
2021/10/20 01:00:11;;;;;;;7.07;6.38;;;;;;;11.45;85.73;98883.59;5027376;27;102725;-59
2021/10/20 01:02:41;;;;;;;6.95;6.13;;;;;;;11.67;85.42;98883.72;5039031;27;102777;-59
2021/10/20 01:05:11;;;;;;;7.72;6.55;;;;;;;11.54;84.96;98877.63;5033862;27;103303;-59
2021/10/20 01:07:39;;;;;;;7.78;6.97;;;;;;;11.35;86.06;98869.34;5020587;27;103215;-59
2021/10/20 01:10:10;;;;;;;7.78;6.88;;;;;;;11.47;86.30;98868.44;5038180;27;102601;-59
2021/10/20 01:12:40;;;;;;;8.27;6.27;;;;;;;11.63;84.40;98861.06;5039505;27;102657;-59
2021/10/20 01:15:10;;;;;;;7.27;6.57;;;;;;;11.69;84.29;98858.00;5031752;27;104102;-59
2021/10/20 01:17:38;;;;;;;6.10;5.50;;;;;;;11.89;83.37;98849.41;5032180;27;103250;-59
2021/10/20 01:20:08;;;;;;;7.07;6.13;;;;;;;11.76;83.65;98848.63;5018938;27;102753;-59
2021/10/20 01:22:41;;;;;;;6.90;6.20;;;;;;;11.74;82.99;98841.75;5029272;27;103161;-59
2021/10/20 01:25:09;;;;;;;6.63;6.03;;;;;;;11.85;82.87;98837.34;5023837;27;103420;-62
2021/10/20 01:27:38;;;;;;;5.78;4.90;;;;;;;11.96;82.94;98837.41;5023624;27;103244;-60
2021/10/20 01:30:08;;;;;;;5.40;4.97;;;;;;;12.17;81.47;98830.47;5037741;27;102630;-59
2021/10/20 01:32:36;;;;;;;5.85;5.00;;;;;;;12.19;81.08;98828.53;5018297;27;102720;-59
2021/10/20 01:35:06;;;;;;;4.80;4.40;;;;;;;12.36;80.79;98821.09;5013938;27;103085;-59
2021/10/20 01:37:34;;;;;;;5.00;4.60;;;;;;;12.45;80.32;98815.94;5044608;27;103598;-60
2021/10/20 01:40:05;;;;;;;4.80;4.40;;;;;;;12.49;80.06;98813.91;5024277;27;102820;-60
2021/10/20 01:42:33;;;;;;;4.55;4.15;;;;;;;12.54;79.67;98812.56;5007172;28;104353;-59
2021/10/20 01:45:01;;;;;;;5.82;4.97;;;;;;;12.57;79.31;98808.84;5004838;28;103216;-59
2021/10/20 01:47:29;;;;;;;4.68;4.28;;;;;;;12.57;79.60;98798.25;4998606;28;103350;-59
2021/10/20 01:49:57;;;;;;;4.43;4.03;;;;;;;12.61;79.20;98799.66;5002041;28;102858;-59
2021/10/20 01:52:25;;;;;;;5.07;4.68;;;;;;;12.61;79.03;98791.72;4994681;28;103928;-59
2021/10/20 01:54:53;;;;;;;5.40;4.90;;;;;;;12.55;79.11;98789.53;4995880;28;104523;-59
2021/10/20 01:57:22;;;;;;;6.03;5.22;;;;;;;12.50;79.74;98781.13;5014911;28;103198;-59
2021/10/20 01:59:51;;;;;;;5.72;5.10;;;;;;;12.54;79.54;98780.78;5010660;27;103067;-59
2021/10/20 02:02:20;;;;;;;6.05;5.53;;;;;;;12.38;80.15;98774.16;4995520;28;103157;-60
2021/10/20 02:04:49;;;;;;;5.95;5.45;;;;;;;12.48;79.94;98769.81;4991024;27;103487;-59
2021/10/20 02:07:17;;;;;;;6.00;5.43;;;;;;;12.51;79.78;98770.41;5008773;28;103193;-59
2021/10/20 02:09:45;;;;;;;6.28;5.60;;;;;;;12.54;79.81;98764.03;5008572;28;102703;-60
2021/10/20 02:12:13;;;;;;;6.82;6.22;;;;;;;12.37;80.49;98756.56;5008337;28;102711;-59
2021/10/20 02:14:43;;;;;;;6.03;5.43;;;;;;;12.51;79.99;98753.66;4995748;28;103625;-60
2021/10/20 02:17:11;;;;;;;7.15;6.03;;;;;;;12.31;80.23;98751.75;4994723;28;102994;-59
2021/10/20 02:19:39;;;;;;;6.93;5.70;;;;;;;12.27;80.84;98750.31;5003881;28;102748;-59
2021/10/20 02:22:08;;;;;;;7.57;6.15;;;;;;;12.24;81.24;98750.56;5007574;27;102941;-59
2021/10/20 02:24:35;;;;;;;5.60;4.97;;;;;;;12.51;80.03;98743.91;4979876;28;103917;-60
2021/10/20 02:27:04;;;;;;;6.03;5.05;;;;;;;12.54;80.03;98748.97;4980228;28;103524;-60
2021/10/20 02:29:32;;;;;;;7.23;5.70;;;;;;;12.49;79.99;98742.34;5013140;28;102944;-60
2021/10/20 02:32:02;;;;;;;6.07;5.47;;;;;;;12.43;79.93;98741.03;5008912;27;104307;-59
2021/10/20 02:34:30;;;;;;;6.00;5.50;;;;;;;12.47;80.02;98741.63;4996848;28;104356;-59
2021/10/20 02:36:58;;;;;;;5.70;5.20;;;;;;;12.46;80.09;98740.75;5010643;28;103209;-59
2021/10/20 02:39:26;;;;;;;6.15;5.55;;;;;;;11.96;81.43;98742.06;5013103;27;102713;-59
2021/10/20 02:41:54;;;;;;;6.18;5.57;;;;;;;12.08;81.23;98733.19;5020195;27;104443;-59
2021/10/20 02:44:22;;;;;;;6.68;6.00;;;;;;;11.40;83.62;98732.28;5032618;27;103464;-59
2021/10/20 02:46:50;;;;;;;6.87;6.13;;;;;;;11.10;85.36;98731.94;5018212;27;103328;-59
2021/10/20 02:49:20;;;;;;;6.47;5.87;;;;;;;11.28;84.46;98734.06;5015500;27;102951;-59
2021/10/20 02:51:48;;;;;;;7.57;6.47;;;;;;;11.29;84.27;98729.59;5013046;27;103069;-59
2021/10/20 02:54:16;;;;;;;9.55;6.63;;;;;;;11.15;85.46;98732.41;5018804;27;104012;-59
2021/10/20 02:56:46;;;;;;;7.53;6.70;;;;;;;11.25;84.97;98726.38;5018268;27;103486;-59
2021/10/20 02:59:14;;;;;;;6.10;5.53;;;;;;;11.48;83.89;98730.75;5027652;27;103929;-59
2021/10/20 03:01:42;;;;;;;5.38;4.97;;;;;;;11.73;83.27;98731.59;5021129;27;103167;-59
2021/10/20 03:04:10;;;;;;;6.63;5.93;;;;;;;11.55;83.06;98731.13;5033651;27;103265;-59
2021/10/20 03:06:40;;;;;;;6.22;5.63;;;;;;;11.52;83.71;98726.06;5028706;27;103199;-59
2021/10/20 03:09:08;;;;;;;7.23;5.80;;;;;;;11.71;81.98;98713.16;5017044;27;102621;-59
2021/10/20 03:11:36;;;;;;;6.07;5.47;;;;;;;11.91;81.83;98712.47;5026809;27;103934;-59
2021/10/20 03:14:05;;;;;;;6.30;5.70;;;;;;;11.94;81.20;98712.25;5028405;27;103083;-60
2021/10/20 03:16:33;;;;;;;6.40;5.63;;;;;;;11.42;82.78;98710.06;5017052;27;103321;-60
2021/10/20 03:19:01;;;;;;;6.47;5.88;;;;;;;11.52;82.97;98704.91;5021380;27;103387;-60
2021/10/20 03:21:29;;;;;;;5.85;5.25;;;;;;;11.56;82.25;98709.84;5016806;27;103195;-60
2021/10/20 03:23:58;;;;;;;5.30;4.80;;;;;;;11.74;81.47;98705.00;5030868;27;104039;-59
2021/10/20 03:26:26;;;;;;;6.47;5.10;;;;;;;11.56;82.21;98706.38;5030855;27;103173;-59
2021/10/20 03:28:58;;;;;;;6.85;5.90;;;;;;;11.38;82.46;98691.88;5017968;27;102847;-59
2021/10/20 03:31:26;;;;;;;6.00;5.47;;;;;;;11.53;81.85;98696.03;5016862;27;103162;-59
2021/10/20 03:33:55;;;;;;;5.43;4.93;;;;;;;11.94;80.72;98691.06;5014974;27;104112;-60
2021/10/20 03:36:23;;;;;;;5.15;4.65;;;;;;;12.13;79.49;98678.06;5025261;27;103190;-60
2021/10/20 03:38:51;;;;;;;5.30;4.80;;;;;;;12.21;79.05;98682.75;5034624;27;103018;-59
2021/10/20 03:41:21;;;;;;;5.70;5.07;;;;;;;12.05;79.25;98685.78;5028154;27;103155;-60
2021/10/20 03:43:51;;;;;;;5.13;4.63;;;;;;;12.20;78.84;98676.63;5022590;27;103544;-60
2021/10/20 03:46:20;;;;;;;5.65;4.90;;;;;;;12.20;79.08;98676.63;5036165;27;105500;-59
2021/10/20 03:48:48;;;;;;;5.50;5.00;;;;;;;12.23;78.68;98675.53;5018840;27;103055;-63
2021/10/20 03:51:19;;;;;;;6.25;4.90;;;;;;;12.29;78.29;98669.75;5016889;27;104112;-62
2021/10/20 03:53:47;;;;;;;5.72;5.13;;;;;;;12.12;78.77;98660.50;5016134;27;103278;-63
2021/10/20 03:56:16;;;;;;;6.03;5.20;;;;;;;12.09;78.73;98673.97;5019124;27;104146;-63
2021/10/20 03:58:45;;;;;;;6.57;5.73;;;;;;;12.02;78.58;98670.13;5016744;27;103290;-63
2021/10/20 04:01:13;;;;;;;5.63;5.05;;;;;;;12.08;78.86;98671.44;5021087;27;102652;-62
2021/10/20 04:03:41;;;;;;;6.20;5.57;;;;;;;11.94;79.30;98676.97;5026204;27;103330;-63
2021/10/20 04:06:09;;;;;;;5.60;5.10;;;;;;;11.96;78.65;98667.09;5028462;27;102979;-63
2021/10/20 04:08:40;;;;;;;7.10;6.40;;;;;;;11.22;81.55;98671.06;5017218;27;102893;-63
2021/10/20 04:11:07;;;;;;;7.13;5.90;;;;;;;10.86;83.35;98674.63;5022808;27;103871;-63
2021/10/20 04:13:36;;;;;;;6.07;5.47;;;;;;;11.53;81.13;98669.56;5018274;27;103312;-59
2021/10/20 04:16:05;;;;;;;5.47;4.97;;;;;;;11.81;79.21;98663.03;5018369;27;103368;-59
2021/10/20 04:18:34;;;;;;;5.03;4.63;;;;;;;12.01;79.31;98660.47;5024592;27;102791;-59
2021/10/20 04:21:02;;;;;;;5.38;4.80;;;;;;;12.04;78.71;98659.41;5031328;27;102767;-59
2021/10/20 04:23:29;;;;;;;5.82;5.22;;;;;;;11.91;78.93;98670.13;5015141;27;103254;-59
2021/10/20 04:25:58;;;;;;;4.50;4.10;;;;;;;11.99;78.88;98667.72;5016760;27;103316;-58
2021/10/20 04:28:26;;;;;;;5.20;4.32;;;;;;;12.02;78.48;98662.19;5024499;27;102650;-59
2021/10/20 04:30:54;;;;;;;5.97;5.35;;;;;;;11.86;78.90;98651.09;5020252;27;102847;-59
2021/10/20 04:33:23;;;;;;;5.90;5.25;;;;;;;11.85;78.77;98657.34;5014674;27;103498;-59
2021/10/20 04:35:52;;;;;;;6.30;5.40;;;;;;;11.82;78.82;98657.59;5030322;27;104202;-59
2021/10/20 04:38:23;;;;;;;6.38;5.78;;;;;;;11.34;81.46;98658.72;5021877;27;102701;-59
2021/10/20 04:40:51;;;;;;;8.65;6.30;;;;;;;10.74;82.78;98654.41;5031491;27;104283;-59
2021/10/20 04:43:19;;;;;;;7.45;6.35;;;;;;;10.76;83.91;98660.41;5045953;27;103290;-59
2021/10/20 04:45:47;;;;;;;8.15;7.25;;;;;;;9.98;86.30;98658.19;5046619;27;103783;-59
2021/10/20 04:48:15;;;;;;;7.97;6.53;;;;;;;10.01;87.17;98653.53;5054256;27;102651;-59
2021/10/20 04:50:46;;;;;;;7.15;6.45;;;;;;;9.88;88.08;98650.91;5034763;27;102791;-58
2021/10/20 04:53:18;;;;;;;7.45;6.75;;;;;;;9.96;87.71;98642.47;5030646;27;104129;-59
2021/10/20 04:55:46;;;;;;;7.07;6.35;;;;;;;10.25;86.82;98643.06;5034063;27;103237;-59
2021/10/20 04:58:14;;;;;;;6.65;5.80;;;;;;;10.78;84.29;98650.56;5034829;27;103125;-58
2021/10/20 05:00:42;;;;;;;5.63;5.13;;;;;;;10.94;82.60;98645.84;5037923;27;103931;-59
2021/10/20 05:03:10;;;;;;;5.88;5.28;;;;;;;10.92;82.60;98636.31;5001777;27;105300;-59
2021/10/20 05:05:38;;;;;;;7.38;6.15;;;;;;;10.78;83.92;98624.13;5043411;27;103219;-59
2021/10/20 05:08:10;;;;;;;5.70;5.20;;;;;;;11.08;82.59;98626.31;5033064;27;102649;-59
2021/10/20 05:10:40;;;;;;;6.10;5.40;;;;;;;11.11;82.15;98625.22;5034605;27;103945;-59
2021/10/20 05:13:08;;;;;;;6.33;5.60;;;;;;;11.10;81.87;98618.25;5041776;27;103238;-59
2021/10/20 05:15:38;;;;;;;5.93;5.33;;;;;;;11.27;80.83;98621.28;5048894;27;103738;-59
2021/10/20 05:18:06;;;;;;;5.70;5.20;;;;;;;11.36;80.40;98620.59;5039802;27;103136;-59
2021/10/20 05:20:34;;;;;;;5.67;5.03;;;;;;;11.43;80.62;98613.00;5036590;27;102814;-60
2021/10/20 05:23:02;;;;;;;5.22;4.72;;;;;;;11.48;79.78;98616.19;5035990;27;103289;-60
2021/10/20 05:25:32;;;;;;;5.93;5.10;;;;;;;11.59;79.42;98613.53;5040867;27;103235;-59
2021/10/20 05:27:59;;;;;;;5.18;4.53;;;;;;;11.65;79.37;98607.75;5030776;27;103050;-59
2021/10/20 05:30:28;;;;;;;6.40;5.25;;;;;;;11.67;78.69;98613.78;5036725;27;105331;-59
2021/10/20 05:32:56;;;;;;;5.13;4.63;;;;;;;11.72;78.81;98609.00;5038205;27;104511;-59
2021/10/20 05:35:24;;;;;;;6.25;5.30;;;;;;;11.52;79.55;98612.31;5030069;27;103817;-59
2021/10/20 05:37:53;;;;;;;5.90;5.40;;;;;;;11.47;79.54;98606.53;5036005;27;102671;-59
2021/10/20 05:40:23;;;;;;;6.90;5.50;;;;;;;10.90;81.90;98612.66;5049418;27;102982;-59
2021/10/20 05:42:54;;;;;;;5.13;4.63;;;;;;;11.09;81.49;98616.56;5034429;27;103542;-59
2021/10/20 05:45:22;;;;;;;7.47;5.77;;;;;;;10.73;81.81;98615.72;5032177;27;105029;-59
2021/10/20 05:47:50;;;;;;;6.15;5.15;;;;;;;11.05;80.39;98611.50;5032408;27;103004;-58
2021/10/20 05:50:18;;;;;;;6.03;5.43;;;;;;;10.92;81.66;98612.53;5017971;27;103972;-58
2021/10/20 05:52:47;;;;;;;5.32;4.75;;;;;;;11.06;81.45;98609.69;5020297;27;103913;-58
2021/10/20 05:55:15;;;;;;;6.57;5.50;;;;;;;10.67;82.04;98624.09;5031797;27;103409;-58
2021/10/20 05:57:43;;;;;;;4.80;4.40;;;;;;;10.96;81.51;98614.00;5031193;27;104073;-58
2021/10/20 06:00:13;;;;;;;5.07;4.57;;;;;;;11.39;79.88;98614.22;5037460;27;104298;-58
2021/10/20 06:02:42;;;;;;;5.40;4.90;;;;;;;11.45;79.59;98608.47;5029243;27;103874;-59
2021/10/20 06:05:11;;;;;;;7.55;5.15;;;;;;;11.44;78.99;98597.03;5011151;27;103464;-59
2021/10/20 06:07:40;;;;;;;6.68;5.82;;;;;;;11.42;78.62;98603.41;5023355;27;103200;-59
2021/10/20 06:10:10;;;;;;;6.28;5.65;;;;;;;11.56;78.58;98611.94;5039540;27;102943;-59
2021/10/20 06:12:39;;;;;;;7.13;6.10;;;;;;;11.63;78.03;98614.97;5035215;27;103247;-58
2021/10/20 06:15:14;;;;;;;7.32;5.47;;;;;;;11.63;78.84;98614.97;5044906;27;103627;-58
2021/10/20 06:18:03;;;;;;;7.55;5.53;;;;;;;11.57;78.43;98612.78;5023377;27;103174;-58
2021/10/20 06:20:32;;;;;;;5.55;5.05;;;;;;;11.81;77.78;98615.38;5040046;27;103841;-59
2021/10/20 06:23:00;;;;;;;6.00;5.35;;;;;;;11.88;77.57;98617.41;5035744;27;103274;-58
2021/10/20 06:25:29;;;;;;;5.80;5.20;;;;;;;11.99;77.18;98619.19;5035177;27;103450;-58
2021/10/20 06:27:57;;;;;;;6.35;5.25;;;;;;;11.69;77.66;98616.28;5029372;27;103257;-58
2021/10/20 06:30:26;;;;;;;5.70;5.10;;;;;;;11.33;79.77;98623.47;5035786;27;102610;-58
2021/10/20 06:32:54;;;;;;;6.40;5.20;;;;;;;11.55;79.85;98625.31;5038691;27;104058;-58
2021/10/20 06:35:23;;;;;;;5.13;4.60;;;;;;;11.99;77.86;98620.06;5050786;27;103200;-58
2021/10/20 06:37:55;;;;;;;5.30;4.70;;;;;;;12.13;76.60;98622.44;5038762;27;103112;-58
2021/10/20 06:40:23;;;;;;;5.03;4.13;;;;;;;12.37;75.71;98632.03;5035450;27;103392;-58
2021/10/20 06:42:51;;;;;;;5.63;5.07;;;;;;;12.46;75.29;98633.97;5029717;27;103513;-58
2021/10/20 06:45:20;;;;;;;6.10;4.40;;;;;;;12.59;75.27;98632.84;5037305;27;103333;-58
2021/10/20 06:47:49;;;;;;;7.68;5.50;;;;;;;12.74;74.94;98622.81;5044689;27;102629;-58
2021/10/20 06:50:18;;;;;;;5.45;4.80;;;;;;;12.99;74.95;98627.75;5034851;27;102935;-58
2021/10/20 06:52:47;;;;;;;7.60;5.73;;;;;;;12.55;76.97;98627.88;5040965;27;104406;-58
2021/10/20 06:55:16;;;;;;;6.25;5.65;;;;;;;12.84;74.58;98622.88;5024536;27;103205;-58
2021/10/20 06:57:44;;;;;;;8.80;5.95;;;;;;;12.84;75.31;98615.75;5055731;27;103017;-58
2021/10/20 07:00:13;;;;;;;5.60;5.00;;;;;;;13.14;74.98;98621.19;5035180;27;103813;-58
2021/10/20 07:02:41;;;;;;;5.57;4.85;;;;;;;13.60;73.13;98611.97;5048841;27;103187;-60
2021/10/20 07:05:11;;;;;;;6.73;5.23;;;;;;;13.85;72.54;98600.91;5037525;27;103297;-60
2021/10/20 07:07:39;;;;;;;6.07;4.90;;;;;;;14.19;71.55;98599.66;5031178;27;102782;-58
2021/10/20 07:10:09;;;;;;;6.78;5.63;;;;;;;14.24;70.97;98610.69;5038193;27;103913;-58
2021/10/20 07:12:39;;;;;;;6.72;5.20;;;;;;;14.40;70.92;98587.13;5050822;27;103238;-58
2021/10/20 07:15:10;;;;;;;6.90;5.43;;;;;;;14.59;70.21;98591.66;5047195;27;103068;-58
2021/10/20 07:17:39;;;;;;;8.23;5.57;;;;;;;14.49;70.28;98593.44;5034251;27;103065;-66
2021/10/20 07:20:08;;;;;;;6.33;5.00;;;;;;;14.96;69.17;98595.28;5044809;27;104854;-66
2021/10/20 07:22:39;;;;;;;6.15;4.80;;;;;;;15.27;68.51;98587.16;5039593;27;103321;-66
2021/10/20 07:25:10;;;;;;;5.57;4.75;;;;;;;15.66;67.90;98586.91;5054889;27;103998;-68
2021/10/20 07:27:40;;;;;;;5.53;4.93;;;;;;;15.59;65.82;98592.97;5056040;27;102963;-66
2021/10/20 07:30:10;;;;;;;4.35;3.95;;;;;;;16.35;64.18;98590.94;5039598;27;102707;-66
2021/10/20 07:32:40;;;;;;;5.20;4.13;;;;;;;15.99;64.54;98596.19;5034959;27;103097;-66
2021/10/20 07:35:09;;;;;;;4.68;3.92;;;;;;;15.84;65.83;98591.47;5022127;27;103257;-66
2021/10/20 07:37:40;;;;;;;5.03;4.37;;;;;;;16.27;64.98;98588.19;5016480;27;102631;-66
2021/10/20 07:40:10;;;;;;;5.38;4.30;;;;;;;16.32;63.54;98588.59;5039337;27;103973;-66
2021/10/20 07:42:39;;;;;;;4.17;3.77;;;;;;;16.35;64.17;98581.13;5043419;27;103517;-66
2021/10/20 07:45:10;;;;;;;4.37;3.90;;;;;;;16.63;61.83;98568.63;5033306;27;103641;-67
2021/10/20 07:47:38;;;;;;;5.67;4.33;;;;;;;16.74;62.28;98560.38;5034466;27;103147;-67
2021/10/20 07:50:08;;;;;;;3.83;3.42;;;;;;;17.31;61.39;98562.53;5039505;27;103968;-66
2021/10/20 07:52:36;;;;;;;7.25;4.70;;;;;;;17.13;60.44;98552.88;5037818;27;103850;-68
2021/10/20 07:55:10;;;;;;;6.55;5.28;;;;;;;16.36;62.68;98557.97;5036355;27;103401;-68
2021/10/20 07:57:38;;;;;;;7.05;5.10;;;;;;;16.77;63.04;98542.25;5022679;27;102726;-66
2021/10/20 08:00:08;;;;;;;6.22;5.18;;;;;;;17.08;60.33;98542.69;5034697;27;102809;-67
2021/10/20 08:02:36;;;;;;;7.30;4.88;;;;;;;17.23;61.65;98542.97;5037407;27;104454;-67
2021/10/20 08:05:05;;;;;;;6.78;4.95;;;;;;;17.72;59.91;98531.59;5033956;27;103058;-69
2021/10/20 08:07:33;;;;;;;6.45;5.22;;;;;;;17.87;60.24;98535.34;5028891;27;103332;-68
2021/10/20 08:10:01;;;;;;;5.07;4.32;;;;;;;18.40;57.84;98531.50;5028615;27;103105;-68
2021/10/20 08:12:30;;;;;;;4.90;4.40;;;;;;;18.96;56.71;98536.94;5020908;27;104398;-68
2021/10/20 08:15:00;;;;;;;5.57;4.97;;;;;;;19.02;55.61;98530.09;5045077;27;103334;-69
2021/10/20 08:17:28;;;;;;;4.97;4.47;;;;;;;19.01;57.31;98520.38;5032187;27;103027;-68
2021/10/20 08:19:56;;;;;;;7.50;4.83;;;;;;;18.77;57.46;98518.53;5033645;27;103028;-68
2021/10/20 08:22:24;;;;;;;8.00;5.00;;;;;;;18.91;56.07;98520.56;5033724;27;103692;-68
2021/10/20 08:24:52;;;;;;;6.95;4.55;;;;;;;19.44;56.31;98519.19;5005794;27;103063;-68
2021/10/20 08:27:21;;;;;;;6.75;4.28;;;;;;;19.68;54.52;98524.47;5034744;27;102778;-69
2021/10/20 08:29:51;;;;;;;6.63;4.60;;;;;;;19.68;54.57;98519.94;5033911;27;102642;-68
2021/10/20 08:32:19;;;;;;;7.45;5.32;;;;;;;19.55;56.50;98518.81;5031852;27;104163;-67
2021/10/20 08:34:48;;;;;;;8.88;5.10;;;;;;;19.54;56.93;98522.50;5051334;27;103234;-68
2021/10/20 08:37:16;;;;;;;5.40;4.38;;;;;;;19.65;56.47;98524.81;5032902;27;102675;-68
2021/10/20 08:39:45;;;;;;;7.70;5.38;;;;;;;18.29;58.35;98532.66;5032763;27;104058;-68
2021/10/20 08:42:13;;;;;;;8.57;5.25;;;;;;;17.92;59.74;98533.03;5048984;27;105711;-69
2021/10/20 08:45:03;;;;;;;7.53;5.10;;;;;;;17.61;61.02;98534.53;5041400;27;103360;-67
2021/10/20 08:47:35;;;;;;;8.83;6.43;;;;;;;18.29;59.49;98531.81;5040723;27;103940;-68
2021/10/20 08:50:04;;;;;;;8.75;6.60;;;;;;;18.81;58.38;98527.06;5033528;27;102776;-68
2021/10/20 08:52:33;;;;;;;8.50;6.00;;;;;;;19.41;57.17;98522.19;5034565;27;103875;-69
2021/10/20 08:55:02;;;;;;;12.27;6.15;;;;;;;19.32;56.86;98507.09;5032812;27;103201;-68
2021/10/20 08:57:30;;;;;;;6.50;5.38;;;;;;;19.75;55.79;98498.66;5032177;27;102641;-68
2021/10/20 09:00:05;;;;;;;8.07;5.23;;;;;;;19.60;55.75;98498.53;5037259;27;103154;-68
2021/10/20 09:02:37;;;;;;;7.18;5.13;;;;;;;19.99;56.12;98498.53;5033491;27;103994;-69
2021/10/20 09:05:11;;;;;;;6.55;5.18;;;;;;;20.25;56.36;98492.91;5037011;27;103585;-68
2021/10/20 09:07:41;;;;;;;14.60;9.70;;;;;;;20.58;55.35;98493.53;5040045;27;102692;-68
2021/10/20 09:10:09;;;;;;;7.13;5.30;;;;;;;21.04;53.61;98487.13;5034945;27;103684;-68
2021/10/20 09:12:40;;;;;;;6.57;4.50;;;;;;;20.74;53.62;98463.91;5022467;27;104490;-68
2021/10/20 09:15:15;;;;;;;6.60;3.58;;;;;;;20.81;53.22;98464.84;5033347;27;103232;-69
2021/10/20 09:17:45;;;;;;;4.90;2.50;;;;;;;20.61;51.94;98452.91;5051709;27;102948;-67
2021/10/20 09:20:23;;;;;;;2.53;2.30;;;;;;;20.42;51.75;98453.41;5038604;27;103184;-68
2021/10/20 09:22:59;;;;;;;2.78;2.35;;;;;;;20.43;52.15;98455.09;5046263;27;103273;-69
2021/10/20 09:25:33;;;;;;;2.40;2.20;;;;;;;20.61;51.66;98445.69;5053877;27;103231;-68
2021/10/20 09:28:04;;;;;;;2.28;2.08;;;;;;;20.75;51.35;98439.53;5049586;27;102676;-68
2021/10/20 09:30:35;;;;;;;3.47;2.60;;;;;;;20.79;51.88;98440.88;5051027;27;102768;-69
2021/10/20 09:33:03;;;;;;;3.50;2.60;;;;;;;20.78;51.16;98443.72;5031224;27;103280;-69
2021/10/20 09:35:33;;;;;;;2.50;2.30;;;;;;;20.57;51.64;98425.63;5029662;27;103397;-68
2021/10/20 09:38:01;;;;;;;2.95;2.40;;;;;;;20.65;52.16;98411.28;5033227;27;102695;-68
2021/10/20 09:40:35;;;;;;;3.35;2.30;;;;;;;21.16;51.14;98407.81;5046565;27;103918;-68
2021/10/20 09:43:04;;;;;;;2.45;2.25;;;;;;;21.29;50.11;98418.72;5032702;27;103371;-68
2021/10/20 09:45:38;;;;;;;3.10;2.10;;;;;;;21.42;50.91;98406.50;5038644;27;103394;-68
2021/10/20 09:48:11;;;;;;;2.88;2.08;;;;;;;21.11;51.32;98412.88;5019376;27;104009;-68
2021/10/20 09:50:54;;;;;;;2.38;2.10;;;;;;;21.32;50.79;98413.00;5038547;27;103257;-69
2021/10/20 09:53:22;;;;;;;2.50;2.28;;;;;;;21.67;50.07;98411.38;5047459;27;103145;-68
2021/10/20 09:55:51;;;;;;;2.58;2.38;;;;;;;21.32;49.91;98409.47;5033622;27;103220;-67
2021/10/20 09:58:19;;;;;;;2.33;2.13;;;;;;;21.64;50.03;98397.50;5045398;27;103033;-67
2021/10/20 10:00:54;;;;;;;3.53;2.35;;;;;;;21.99;49.94;98402.06;5035123;27;102899;-68
2021/10/20 10:03:22;;;;;;;3.40;2.37;;;;;;;22.56;48.94;98398.50;5025295;27;104202;-67
2021/10/20 10:05:51;;;;;;;2.47;2.20;;;;;;;22.34;49.40;98374.28;5027816;27;102927;-68
2021/10/20 10:08:19;;;;;;;3.70;2.80;;;;;;;22.50;48.96;98384.81;5049204;27;102646;-67
2021/10/20 10:10:49;;;;;;;3.37;2.20;;;;;;;22.61;49.09;98386.13;5037035;27;102808;-68
2021/10/20 10:13:26;;;;;;;3.28;2.25;;;;;;;22.16;49.81;98384.69;5037305;27;103515;-66
2021/10/20 10:15:57;;;;;;;2.40;2.10;;;;;;;22.60;49.23;98389.03;5039144;27;103194;-67
2021/10/20 10:18:26;;;;;;;2.35;2.15;;;;;;;22.74;48.80;98374.66;5046580;27;103043;-68
2021/10/20 10:20:54;;;;;;;2.38;2.15;;;;;;;22.84;48.46;98375.16;5044460;27;103006;-68
2021/10/20 10:23:25;;;;;;;2.60;2.05;;;;;;;22.51;49.21;98375.69;5037364;27;103862;-68
2021/10/20 10:25:58;;;;;;;2.80;2.50;;;;;;;22.65;49.07;98360.53;5033554;27;103181;-67
2021/10/20 10:28:29;;;;;;;3.17;2.28;;;;;;;22.80;48.61;98357.72;5040549;27;102890;-69
2021/10/20 10:31:04;;;;;;;3.00;2.05;;;;;;;22.89;49.25;98356.53;5052793;27;102757;-69
2021/10/20 10:33:37;;;;;;;2.53;2.33;;;;;;;22.68;48.90;98367.38;5040474;27;103331;-69
2021/10/20 10:36:11;;;;;;;3.83;2.17;;;;;;;23.00;48.52;98345.22;5039498;27;103193;-68
2021/10/20 10:38:41;;;;;;;4.30;2.35;;;;;;;22.53;49.08;98351.28;5034997;27;102799;-69
2021/10/20 10:41:21;;;;;;;3.42;2.33;;;;;;;22.49;48.80;98350.81;5025015;27;102816;-69
2021/10/20 10:44:13;;;;;;;3.58;2.20;;;;;;;22.69;48.26;98352.88;5015852;27;103981;-68
2021/10/20 10:46:53;;;;;;;2.63;2.13;;;;;;;23.05;48.46;98340.06;5018191;27;103423;-68
2021/10/20 10:49:26;;;;;;;4.03;2.22;;;;;;;22.78;49.07;98338.25;5031587;27;102887;-68
2021/10/20 10:52:15;;;;;;;3.00;2.20;;;;;;;22.87;48.33;98345.16;5029950;27;102681;-69
2021/10/20 10:54:55;;;;;;;3.50;2.40;;;;;;;22.76;49.24;98341.16;5027747;27;103898;-68
2021/10/20 10:57:24;;;;;;;3.30;2.53;;;;;;;22.60;48.84;98345.97;5023293;27;103177;-69
2021/10/20 10:59:53;;;;;;;2.80;2.40;;;;;;;22.49;49.07;98340.06;5014863;27;103021;-69
2021/10/20 11:02:45;;;;;;;2.85;2.15;;;;;;;22.48;48.79;98342.97;5015299;27;104173;-68
2021/10/20 11:05:14;;;;;;;3.30;2.30;;;;;;;22.53;49.54;98335.97;5012289;27;103964;-69
2021/10/20 11:07:46;;;;;;;3.17;2.28;;;;;;;22.69;49.42;98339.41;5019390;27;103166;-68
2021/10/20 11:10:16;;;;;;;3.10;2.40;;;;;;;23.55;48.60;98326.25;5016216;27;102867;-68
2021/10/20 11:12:46;;;;;;;2.67;2.17;;;;;;;23.78;47.49;98319.69;5015749;27;103202;-69
2021/10/20 11:15:14;;;;;;;2.40;2.08;;;;;;;23.80;47.09;98317.63;5015063;27;103967;-69
2021/10/20 11:17:44;;;;;;;4.10;2.30;;;;;;;23.56;46.96;98311.75;5015208;27;102567;-69
2021/10/20 11:20:18;;;;;;;3.70;2.10;;;;;;;24.26;46.63;98307.75;5020715;27;103111;-69
2021/10/20 11:22:48;;;;;;;2.30;2.00;;;;;;;24.31;46.18;98304.47;5018522;27;103026;-68
2021/10/20 11:25:17;;;;;;;3.33;2.38;;;;;;;24.41;46.22;98305.69;5029633;27;103990;-70
2021/10/20 11:27:50;;;;;;;2.42;2.10;;;;;;;24.79;45.26;98303.16;5016314;27;103243;-69
2021/10/20 11:30:21;;;;;;;3.65;2.30;;;;;;;24.58;45.37;98298.84;5013468;27;102687;-69
2021/10/20 11:32:50;;;;;;;2.90;2.20;;;;;;;24.82;44.67;98291.13;5016859;27;102692;-68
2021/10/20 11:35:22;;;;;;;2.90;2.20;;;;;;;24.78;45.35;98296.94;5024849;27;104144;-69